Time;durP1;ratioP1;P1;durP2;ratioP2;P2;SDS_P1;SDS_P2;PMS_P1;PMS_P2;Temp;Humidity;BMP_temperature;BMP_pressure;BME280_temperature;BME280_humidity;BME280_pressure;Samples;Min_cycle;Max_cycle;Signal;HPM_P1;HPM_P2
2023/04/01 05:04:44;;;;;;;0.57;0.30;;;8.40;99.90;;;;;;5664308;23;20223;-67
2023/04/01 05:07:10;;;;;;;0.90;0.80;;;8.40;99.90;;;;;;4997484;28;20167;-66
2023/04/01 05:09:35;;;;;;;0.60;0.40;;;8.50;99.90;;;;;;4997274;28;20617;-67
2023/04/01 05:12:01;;;;;;;0.50;0.40;;;8.50;99.90;;;;;;4997394;28;20211;-67
2023/04/01 05:14:27;;;;;;;0.40;0.40;;;8.50;99.90;;;;;;4996929;28;20207;-67
2023/04/01 05:16:54;;;;;;;0.50;0.50;;;8.60;99.90;;;;;;4997325;28;20171;-67
2023/04/01 05:19:19;;;;;;;0.65;0.60;;;8.60;99.90;;;;;;4997236;28;20163;-67
2023/04/01 05:21:45;;;;;;;0.50;0.30;;;8.60;99.90;;;;;;4997267;28;20173;-67
2023/04/01 05:24:11;;;;;;;1.00;0.40;;;8.70;99.90;;;;;;4995520;28;20430;-66
2023/04/01 05:26:37;;;;;;;1.93;1.83;;;8.70;99.90;;;;;;4997349;28;20178;-68
2023/04/01 05:29:03;;;;;;;0.30;0.30;;;8.80;99.90;;;;;;4997012;28;20172;-66
2023/04/01 05:31:29;;;;;;;0.65;0.65;;;8.80;99.90;;;;;;4997064;28;20502;-68
2023/04/01 05:33:55;;;;;;;0.98;0.40;;;8.80;99.90;;;;;;4994455;28;21721;-68
2023/04/01 05:36:21;;;;;;;0.60;0.30;;;8.80;99.90;;;;;;4996598;28;20689;-67
2023/04/01 05:38:47;;;;;;;0.82;0.43;;;8.90;99.90;;;;;;4996991;28;20168;-67
2023/04/01 05:41:14;;;;;;;0.47;0.40;;;8.90;99.90;;;;;;4996931;28;20580;-68
2023/04/01 05:43:41;;;;;;;0.50;0.30;;;9.00;99.90;;;;;;4996441;28;20757;-67
2023/04/01 05:46:07;;;;;;;0.55;0.45;;;9.00;99.90;;;;;;4995519;28;20597;-68
2023/04/01 05:48:37;;;;;;;1.07;1.07;;;9.10;99.90;;;;;;4996787;28;20254;-67
2023/04/01 05:51:04;;;;;;;4.13;0.52;;;9.10;99.90;;;;;;4996548;28;20254;-68
2023/04/01 05:53:29;;;;;;;2.70;0.50;;;9.20;99.90;;;;;;4994719;28;20199;-68
2023/04/01 05:55:55;;;;;;;0.40;0.40;;;9.20;99.90;;;;;;4996520;28;20187;-67
2023/04/01 05:58:21;;;;;;;0.57;0.57;;;9.30;99.90;;;;;;4994170;28;20179;-68
2023/04/01 06:00:46;;;;;;;0.50;0.50;;;9.30;99.90;;;;;;4996495;28;20175;-68
2023/04/01 06:03:12;;;;;;;0.40;0.40;;;9.40;99.90;;;;;;4996250;28;20584;-66
2023/04/01 06:05:40;;;;;;;2.33;0.50;;;9.50;99.90;;;;;;4991673;28;20266;-64
2023/04/01 06:08:15;;;;;;;0.70;0.50;;;9.60;99.90;;;;;;4985941;28;20573;-66
2023/04/01 06:10:50;;;;;;;1.63;0.50;;;9.70;99.90;;;;;;4977264;28;20199;-65
2023/04/01 06:13:45;;;;;;;0.43;0.43;;;9.70;99.90;;;;;;4976210;28;20203;-65
2023/04/01 06:16:56;;;;;;;0.30;0.30;;;9.80;99.90;;;;;;4976668;28;20175;-68
2023/04/01 06:19:40;;;;;;;0.50;0.50;;;10.00;99.90;;;;;;4938834;29;20181;-70
2023/04/01 06:22:29;;;;;;;0.70;0.40;;;10.10;99.90;;;;;;4975485;28;20379;-68
2023/04/01 06:24:56;;;;;;;0.50;0.40;;;10.20;99.90;;;;;;4975998;28;20196;-67
2023/04/01 06:27:39;;;;;;;1.35;0.50;;;10.30;99.90;;;;;;4976339;28;20172;-67
2023/04/01 06:30:11;;;;;;;0.80;0.70;;;10.40;99.90;;;;;;4976606;28;20180;-68
2023/04/01 06:32:55;;;;;;;0.40;0.40;;;10.50;99.90;;;;;;4976666;28;20301;-70
2023/04/01 06:35:49;;;;;;;0.68;0.52;;;10.60;99.90;;;;;;4975274;28;20289;-68
2023/04/01 06:38:27;;;;;;;1.88;0.82;;;10.70;99.90;;;;;;4974223;28;20209;-70
2023/04/01 06:41:11;;;;;;;0.55;0.55;;;10.90;99.90;;;;;;4974582;28;20177;-67
2023/04/01 06:43:54;;;;;;;0.60;0.60;;;10.90;99.90;;;;;;4975700;28;20210;-66
2023/04/01 06:46:49;;;;;;;0.70;0.70;;;11.00;99.90;;;;;;4976095;28;20192;-67
2023/04/01 06:49:18;;;;;;;0.30;0.30;;;11.00;99.90;;;;;;4972013;28;20269;-68
2023/04/01 06:51:57;;;;;;;0.40;0.30;;;11.00;99.90;;;;;;4976130;28;20184;-64
2023/04/01 06:54:32;;;;;;;0.68;0.50;;;10.90;99.90;;;;;;4975503;28;20202;-68
2023/04/01 06:57:05;;;;;;;1.23;0.75;;;10.90;99.90;;;;;;4988915;28;20233;-66
2023/04/01 06:59:34;;;;;;;0.50;0.50;;;10.80;99.90;;;;;;4995342;28;20222;-68
2023/04/01 07:02:34;;;;;;;0.40;0.40;;;10.80;99.90;;;;;;4993999;28;20523;-65
2023/04/01 07:05:01;;;;;;;0.65;0.63;;;10.80;99.90;;;;;;4985490;28;20487;-66
2023/04/01 07:07:34;;;;;;;0.40;0.40;;;10.70;99.90;;;;;;4995235;28;20255;-65
2023/04/01 07:10:05;;;;;;;0.50;0.50;;;10.70;99.90;;;;;;4994866;28;20231;-67
2023/04/01 07:12:31;;;;;;;0.73;0.30;;;10.70;99.90;;;;;;4975787;28;20718;-65
2023/04/01 07:14:58;;;;;;;0.30;0.30;;;10.80;99.90;;;;;;4975137;28;20192;-65
2023/04/01 07:17:35;;;;;;;0.40;0.30;;;10.90;99.90;;;;;;4975449;28;20169;-66
2023/04/01 07:20:23;;;;;;;0.30;0.30;;;11.00;99.90;;;;;;4975668;28;20174;-66
2023/04/01 07:22:52;;;;;;;0.30;0.30;;;11.00;99.90;;;;;;4975101;28;20180;-65
2023/04/01 07:25:22;;;;;;;0.60;0.60;;;11.10;99.90;;;;;;4978415;28;20196;-68
2023/04/01 07:27:48;;;;;;;0.80;0.80;;;11.10;99.90;;;;;;4994133;28;20268;-69
2023/04/01 07:30:17;;;;;;;2.50;0.73;;;11.10;99.90;;;;;;4986068;28;20260;-69
2023/04/01 07:32:46;;;;;;;0.40;0.40;;;11.10;99.90;;;;;;4975291;28;20225;-67
2023/04/01 07:35:22;;;;;;;0.52;0.52;;;11.20;99.90;;;;;;4975237;28;20259;-67
2023/04/01 07:38:25;;;;;;;1.15;0.98;;;11.20;99.90;;;;;;4975737;28;20177;-70
2023/04/01 07:41:11;;;;;;;2.47;1.38;;;11.30;99.90;;;;;;4985530;28;20181;-69
2023/04/01 07:43:54;;;;;;;1.02;0.88;;;11.20;99.90;;;;;;4993135;28;20598;-64
2023/04/01 07:47:05;;;;;;;0.93;0.52;;;11.20;99.90;;;;;;4986485;28;20177;-65
2023/04/01 07:49:48;;;;;;;0.35;0.35;;;11.20;99.90;;;;;;4977664;28;20462;-65
2023/04/01 07:52:35;;;;;;;2.33;1.63;;;11.10;99.90;;;;;;4981331;28;20552;-65
2023/04/01 07:55:28;;;;;;;1.30;1.17;;;11.10;99.90;;;;;;4990604;28;20195;-67
2023/04/01 07:57:59;;;;;;;0.80;0.80;;;11.10;99.90;;;;;;4981697;28;20578;-68
2023/04/01 08:00:30;;;;;;;1.75;0.80;;;11.10;99.90;;;;;;4976373;28;20178;-67
2023/04/01 08:03:22;;;;;;;0.60;0.60;;;11.00;99.90;;;;;;4989417;28;20236;-66
2023/04/01 08:06:08;;;;;;;0.73;0.73;;;11.10;99.90;;;;;;4995481;28;20653;-66
2023/04/01 08:08:54;;;;;;;1.38;0.55;;;11.10;99.90;;;;;;4990574;28;20187;-66
2023/04/01 08:11:48;;;;;;;3.90;1.35;;;11.10;99.90;;;;;;4993043;28;20188;-66
2023/04/01 08:14:31;;;;;;;0.75;0.75;;;11.10;99.90;;;;;;4990105;28;20296;-68
2023/04/01 08:17:03;;;;;;;0.55;0.55;;;11.20;99.90;;;;;;4991846;28;20175;-65
2023/04/01 08:20:07;;;;;;;0.30;0.30;;;11.30;99.90;;;;;;4993377;28;20198;-66
2023/04/01 08:22:50;;;;;;;0.52;0.40;;;11.40;99.90;;;;;;4975756;28;20523;-67
2023/04/01 08:25:25;;;;;;;0.90;0.73;;;11.40;99.90;;;;;;4972657;28;20228;-65
2023/04/01 08:28:04;;;;;;;1.45;0.77;;;11.40;99.90;;;;;;4978920;28;20425;-66
2023/04/01 08:30:38;;;;;;;0.50;0.50;;;11.50;99.90;;;;;;4975060;28;20168;-67
2023/04/01 08:33:24;;;;;;;1.55;0.40;;;11.50;99.90;;;;;;4974731;28;20965;-67
2023/04/01 08:36:03;;;;;;;3.30;0.45;;;11.50;99.90;;;;;;4973302;28;20197;-67
2023/04/01 08:38:49;;;;;;;0.83;0.70;;;11.50;99.90;;;;;;4975478;28;20180;-67
2023/04/01 08:41:39;;;;;;;0.40;0.30;;;11.50;99.90;;;;;;4987823;28;20411;-66
2023/04/01 08:44:32;;;;;;;1.03;0.60;;;11.60;99.90;;;;;;4975271;28;20440;-65
2023/04/01 08:47:15;;;;;;;5.00;0.67;;;11.60;99.90;;;;;;4974037;28;20450;-67
2023/04/01 08:50:22;;;;;;;0.40;0.40;;;11.70;99.90;;;;;;4975316;28;20905;-65
2023/04/01 08:53:08;;;;;;;0.50;0.50;;;11.60;99.90;;;;;;4974758;28;20480;-65
2023/04/01 08:56:06;;;;;;;0.50;0.50;;;11.60;99.90;;;;;;4975718;28;20497;-66
2023/04/01 08:58:47;;;;;;;0.82;0.47;;;11.50;99.90;;;;;;4989061;28;20180;-68
2023/04/01 09:01:40;;;;;;;0.30;0.30;;;11.50;99.90;;;;;;4993587;28;20176;-67
2023/04/01 09:04:27;;;;;;;0.38;0.38;;;11.30;99.90;;;;;;4998876;28;20202;-67
2023/04/01 09:07:14;;;;;;;0.40;0.32;;;11.20;99.90;;;;;;4978047;28;20185;-67
2023/04/01 09:10:06;;;;;;;1.77;0.47;;;11.10;99.90;;;;;;4976388;28;20245;-69
2023/04/01 09:12:56;;;;;;;0.60;0.60;;;11.10;99.90;;;;;;4978987;28;20208;-66
2023/04/01 09:15:42;;;;;;;0.50;0.50;;;11.10;99.90;;;;;;4975638;28;20510;-67
2023/04/01 09:18:08;;;;;;;0.50;0.40;;;11.10;99.90;;;;;;4985053;28;20266;-67
2023/04/01 09:20:46;;;;;;;3.88;0.40;;;11.10;99.90;;;;;;4995294;28;20294;-66
2023/04/01 09:23:37;;;;;;;0.95;0.65;;;11.10;99.90;;;;;;4998368;28;20270;-67
2023/04/01 09:26:27;;;;;;;0.33;0.33;;;11.10;99.90;;;;;;4994759;28;20182;-66
2023/04/01 09:29:14;;;;;;;0.60;0.60;;;11.10;99.90;;;;;;4995747;28;20403;-65
2023/04/01 09:32:01;;;;;;;0.50;0.50;;;11.20;99.90;;;;;;4979918;28;20403;-65
2023/04/01 09:34:45;;;;;;;0.73;0.73;;;11.30;99.90;;;;;;4980420;28;20204;-66
2023/04/01 09:37:26;;;;;;;0.57;0.57;;;11.30;99.90;;;;;;4980110;28;20229;-66
2023/04/01 09:40:26;;;;;;;1.53;0.53;;;11.50;99.90;;;;;;4979247;28;20429;-66
2023/04/01 09:43:01;;;;;;;0.60;0.60;;;11.60;99.90;;;;;;4979101;28;20493;-66
2023/04/01 09:45:58;;;;;;;0.50;0.30;;;11.60;99.90;;;;;;4980783;28;20427;-66
2023/04/01 09:49:07;;;;;;;0.33;0.33;;;11.80;99.90;;;;;;4978412;28;20433;-67
2023/04/01 09:52:25;;;;;;;0.30;0.30;;;11.80;99.90;;;;;;4978067;28;20410;-65
2023/04/01 09:55:19;;;;;;;0.50;0.40;;;11.90;99.90;;;;;;4975798;28;20460;-65
2023/04/01 09:58:06;;;;;;;0.40;0.40;;;11.90;99.90;;;;;;4977284;28;20400;-65
2023/04/01 10:00:32;;;;;;;0.30;0.30;;;12.00;99.90;;;;;;4977177;28;20481;-65
2023/04/01 10:03:28;;;;;;;0.30;0.30;;;11.90;99.90;;;;;;4976622;28;20506;-66
2023/04/01 10:06:41;;;;;;;0.80;0.40;;;11.90;99.90;;;;;;4978821;28;20211;-66
2023/04/01 10:09:18;;;;;;;0.50;0.47;;;11.80;99.90;;;;;;4996494;28;20402;-66
2023/04/01 10:12:01;;;;;;;0.50;0.50;;;11.80;99.90;;;;;;4995053;28;20167;-66
2023/04/01 10:14:52;;;;;;;0.40;0.40;;;11.80;99.90;;;;;;4995718;28;20867;-65
2023/04/01 10:17:36;;;;;;;0.60;0.60;;;11.90;99.90;;;;;;4996434;28;20495;-65
2023/04/01 10:20:20;;;;;;;0.43;0.43;;;11.90;99.90;;;;;;4996219;28;20483;-65
2023/04/01 10:23:07;;;;;;;0.40;0.40;;;11.80;99.90;;;;;;4996127;28;20411;-65
2023/04/01 10:25:57;;;;;;;0.50;0.40;;;11.90;99.90;;;;;;4996278;28;20422;-66
2023/04/01 10:28:41;;;;;;;0.50;0.30;;;12.00;99.90;;;;;;4996233;28;20821;-66
2023/04/01 10:31:25;;;;;;;0.50;0.50;;;12.00;99.90;;;;;;4996202;28;20759;-66
2023/04/01 10:33:56;;;;;;;1.00;0.50;;;12.00;99.90;;;;;;4995325;28;20456;-66
2023/04/01 10:36:37;;;;;;;0.43;0.40;;;12.10;99.90;;;;;;4996387;28;20458;-66
2023/04/01 10:39:08;;;;;;;0.50;0.50;;;12.20;99.90;;;;;;4995944;28;20404;-65
2023/04/01 10:42:10;;;;;;;0.50;0.50;;;12.20;99.90;;;;;;4995836;28;20543;-65
2023/04/01 10:44:48;;;;;;;0.30;0.30;;;12.30;99.90;;;;;;4992893;28;20454;-65
2023/04/01 10:47:40;;;;;;;0.40;0.30;;;12.30;99.90;;;;;;4995723;28;20952;-66
2023/04/01 10:50:14;;;;;;;0.60;0.57;;;12.30;99.90;;;;;;4995907;28;20408;-66
2023/04/01 10:53:16;;;;;;;1.27;0.70;;;12.30;99.90;;;;;;4995741;28;20844;-66
2023/04/01 10:56:08;;;;;;;0.70;0.70;;;12.20;99.90;;;;;;4954935;29;20437;-66
2023/04/01 10:58:53;;;;;;;0.50;0.50;;;12.10;99.90;;;;;;4994371;28;20444;-65
2023/04/01 11:01:40;;;;;;;1.43;0.50;;;12.00;99.90;;;;;;4995643;28;20402;-65
2023/04/01 11:04:27;;;;;;;0.30;0.30;;;12.00;99.90;;;;;;4995002;28;20420;-65
2023/04/01 11:07:17;;;;;;;0.37;0.37;;;12.00;99.90;;;;;;4985591;28;20412;-65
2023/04/01 11:10:04;;;;;;;0.93;0.50;;;12.00;99.90;;;;;;4974700;28;20455;-65
2023/04/01 11:12:41;;;;;;;0.30;0.30;;;12.00;99.90;;;;;;4975956;28;20453;-65
2023/04/01 11:15:37;;;;;;;0.40;0.40;;;12.00;99.90;;;;;;4975579;28;20427;-66
2023/04/01 11:18:31;;;;;;;0.50;0.50;;;12.00;99.90;;;;;;4975864;28;20463;-65
2023/04/01 11:20:56;;;;;;;0.40;0.40;;;12.10;99.90;;;;;;4975719;28;20739;-66
2023/04/01 11:23:41;;;;;;;0.40;0.40;;;12.10;99.90;;;;;;4975236;28;20415;-65
2023/04/01 11:26:26;;;;;;;0.43;0.43;;;12.20;99.90;;;;;;4975429;28;20182;-64
2023/04/01 11:29:29;;;;;;;0.50;0.33;;;12.20;99.90;;;;;;4988872;28;20832;-65
2023/04/01 11:32:09;;;;;;;0.73;0.60;;;12.30;99.90;;;;;;4975671;28;20893;-65
2023/04/01 11:35:01;;;;;;;0.47;0.47;;;12.30;99.90;;;;;;4990839;28;20482;-65
2023/04/01 11:37:46;;;;;;;1.13;0.40;;;12.40;99.90;;;;;;4994524;28;20455;-65
2023/04/01 11:40:35;;;;;;;0.37;0.37;;;12.40;99.90;;;;;;4994472;28;20948;-65
2023/04/01 11:43:29;;;;;;;0.60;0.60;;;12.40;99.90;;;;;;4986818;28;20429;-65
2023/04/01 11:46:23;;;;;;;0.50;0.40;;;12.50;99.90;;;;;;4975118;28;20695;-65
2023/04/01 11:49:07;;;;;;;0.60;0.50;;;12.60;99.90;;;;;;4992272;28;20966;-67
2023/04/01 11:52:01;;;;;;;0.77;0.77;;;12.60;99.90;;;;;;4993994;28;20414;-66
2023/04/01 11:54:40;;;;;;;0.70;0.70;;;12.70;99.90;;;;;;4993463;28;20959;-65
2023/04/01 11:57:24;;;;;;;0.40;0.40;;;12.80;99.90;;;;;;4986708;28;20816;-65
2023/04/01 12:00:06;;;;;;;0.53;0.53;;;12.80;99.90;;;;;;4974861;28;20513;-65
2023/04/01 12:02:40;;;;;;;0.47;0.47;;;12.80;99.90;;;;;;4974869;28;20427;-65
2023/04/01 12:05:32;;;;;;;0.40;0.40;;;12.80;99.90;;;;;;4974273;28;20826;-65
2023/04/01 12:08:04;;;;;;;0.40;0.40;;;12.80;99.90;;;;;;4974758;28;20481;-66
2023/04/01 12:10:47;;;;;;;0.30;0.30;;;12.70;99.90;;;;;;4986823;28;20464;-65
2023/04/01 12:13:35;;;;;;;0.40;0.40;;;12.80;99.90;;;;;;4991409;28;20858;-66
2023/04/01 12:16:19;;;;;;;1.27;0.60;;;12.70;99.90;;;;;;4984751;28;20430;-66
2023/04/01 12:19:09;;;;;;;0.60;0.50;;;12.70;99.90;;;;;;4990478;28;20418;-65
2023/04/01 12:21:52;;;;;;;5.30;3.47;;;12.60;99.90;;;;;;4985354;28;20496;-66
2023/04/01 12:24:33;;;;;;;1.00;1.00;;;12.70;99.90;;;;;;4975043;28;20864;-66
2023/04/01 12:27:20;;;;;;;0.80;0.80;;;12.70;99.90;;;;;;4974539;28;20824;-67
2023/04/01 12:30:00;;;;;;;0.40;0.40;;;12.70;99.90;;;;;;4973242;28;20948;-66
2023/04/01 12:32:45;;;;;;;0.40;0.40;;;12.70;99.90;;;;;;4974593;28;20458;-67
2023/04/01 12:35:34;;;;;;;0.30;0.30;;;12.80;99.90;;;;;;4974456;28;20428;-66
2023/04/01 12:38:08;;;;;;;0.40;0.40;;;12.80;99.90;;;;;;4974533;28;20406;-65
2023/04/01 12:40:46;;;;;;;1.00;1.00;;;12.80;99.90;;;;;;4975142;28;20505;-65
2023/04/01 12:43:47;;;;;;;0.40;0.40;;;12.80;99.90;;;;;;4973158;28;20471;-67
2023/04/01 12:46:32;;;;;;;0.30;0.30;;;12.80;99.90;;;;;;4979732;28;20427;-67
2023/04/01 12:49:06;;;;;;;0.40;0.40;;;12.80;99.90;;;;;;4973040;28;20431;-66
2023/04/01 12:51:55;;;;;;;0.30;0.30;;;12.80;99.90;;;;;;4974548;28;20785;-65
2023/04/01 12:55:09;;;;;;;0.40;0.40;;;12.90;99.90;;;;;;4986454;28;20835;-65
2023/04/01 12:57:49;;;;;;;0.30;0.30;;;12.80;99.90;;;;;;4940095;28;20490;-66
2023/04/01 13:00:24;;;;;;;0.43;0.43;;;12.90;99.90;;;;;;4975277;28;20417;-65
2023/04/01 13:03:43;;;;;;;0.40;0.30;;;12.90;99.90;;;;;;4987216;28;20465;-67
2023/04/01 13:06:20;;;;;;;0.50;0.50;;;12.90;99.90;;;;;;4981590;28;20452;-67
2023/04/01 13:09:29;;;;;;;0.30;0.30;;;13.00;99.90;;;;;;4989625;28;20429;-66
2023/04/01 13:12:37;;;;;;;0.80;0.70;;;13.00;99.90;;;;;;4982887;28;20422;-65
2023/04/01 13:15:30;;;;;;;0.90;0.40;;;13.00;99.90;;;;;;4972872;28;20542;-65
2023/04/01 13:18:05;;;;;;;0.50;0.50;;;12.90;99.90;;;;;;4979310;28;20442;-65
2023/04/01 13:20:48;;;;;;;0.67;0.67;;;12.90;99.90;;;;;;4978006;28;20398;-66
2023/04/01 13:23:26;;;;;;;0.40;0.40;;;12.90;99.90;;;;;;4977537;28;20868;-65
2023/04/01 13:26:17;;;;;;;1.57;0.80;;;12.90;99.90;;;;;;4979479;28;20534;-65
2023/04/01 13:28:58;;;;;;;0.63;0.60;;;12.80;99.90;;;;;;4982861;28;20993;-66
2023/04/01 13:31:54;;;;;;;0.50;0.40;;;12.70;99.90;;;;;;4978449;28;20426;-66
2023/04/01 13:34:55;;;;;;;0.63;0.63;;;12.70;99.90;;;;;;4977660;28;20465;-65
2023/04/01 13:37:45;;;;;;;0.50;0.50;;;12.70;99.90;;;;;;4985201;28;20404;-66
2023/04/01 13:40:26;;;;;;;0.60;0.60;;;12.70;99.90;;;;;;4978699;28;20869;-66
2023/04/01 13:43:02;;;;;;;0.57;0.40;;;12.70;99.90;;;;;;4982076;28;20427;-66
2023/04/01 13:45:55;;;;;;;0.63;0.63;;;12.70;99.90;;;;;;4978709;28;20444;-68
2023/04/01 13:48:36;;;;;;;0.50;0.50;;;12.80;99.90;;;;;;4985679;28;20492;-66
2023/04/01 13:51:13;;;;;;;0.50;0.50;;;12.80;99.90;;;;;;4984330;28;20421;-65
2023/04/01 13:54:02;;;;;;;0.40;0.40;;;12.80;99.90;;;;;;4976840;28;20458;-68
2023/04/01 13:56:34;;;;;;;0.60;0.60;;;12.80;99.90;;;;;;4978121;28;20407;-66
2023/04/01 13:59:08;;;;;;;0.40;0.40;;;12.70;99.90;;;;;;4995604;28;20433;-67
2023/04/01 14:01:58;;;;;;;0.40;0.40;;;12.60;99.90;;;;;;4979240;28;20420;-66
2023/04/01 14:04:41;;;;;;;0.40;0.40;;;12.60;99.90;;;;;;4978755;28;20519;-65
2023/04/01 14:07:32;;;;;;;0.30;0.20;;;12.50;99.90;;;;;;4990467;28;20853;-63
2023/04/01 14:10:23;;;;;;;0.60;0.30;;;12.50;99.90;;;;;;4991678;28;20465;-64
2023/04/01 14:13:03;;;;;;;0.33;0.33;;;12.50;99.90;;;;;;4977366;28;20457;-63
2023/04/01 14:15:34;;;;;;;0.47;0.47;;;12.40;99.90;;;;;;4977022;28;20435;-62
2023/04/01 14:18:32;;;;;;;0.40;0.40;;;12.40;99.90;;;;;;4995001;28;20413;-63
2023/04/01 14:21:36;;;;;;;0.43;0.43;;;12.40;99.90;;;;;;4996357;28;20785;-64
2023/04/01 14:24:26;;;;;;;0.70;0.70;;;12.40;99.90;;;;;;4976595;28;20457;-63
2023/04/01 14:27:23;;;;;;;0.60;0.60;;;12.30;99.90;;;;;;4976522;28;20461;-62
2023/04/01 14:30:01;;;;;;;1.03;0.33;;;12.20;99.90;;;;;;4976767;28;20408;-66
2023/04/01 14:32:53;;;;;;;0.37;0.37;;;12.30;99.90;;;;;;4976723;28;20451;-65
2023/04/01 14:35:49;;;;;;;0.40;0.40;;;12.30;99.90;;;;;;4987850;28;20441;-65
2023/04/01 14:38:28;;;;;;;0.37;0.37;;;12.20;99.90;;;;;;4996000;28;20417;-64
2023/04/01 14:41:15;;;;;;;0.40;0.40;;;12.20;99.90;;;;;;4983406;28;20766;-65
2023/04/01 14:44:11;;;;;;;0.30;0.23;;;12.20;99.90;;;;;;4983794;28;20417;-64
2023/04/01 14:46:51;;;;;;;0.40;0.40;;;12.10;99.90;;;;;;4981644;28;20429;-66
2023/04/01 14:49:30;;;;;;;0.40;0.40;;;12.10;99.90;;;;;;4985457;28;20934;-68
2023/04/01 14:52:09;;;;;;;0.57;0.57;;;12.10;99.90;;;;;;4978598;28;20434;-63
2023/04/01 14:54:41;;;;;;;0.50;0.50;;;12.00;99.90;;;;;;4978424;28;20452;-63
2023/04/01 14:57:13;;;;;;;4.97;3.10;;;11.90;99.90;;;;;;4975841;28;20913;-63
2023/04/01 14:59:49;;;;;;;1.80;1.63;;;12.00;99.90;;;;;;4976848;28;20218;-65
2023/04/01 15:02:35;;;;;;;0.30;0.30;;;11.90;99.90;;;;;;4988735;28;20447;-65
2023/04/01 15:05:22;;;;;;;0.40;0.40;;;11.90;99.90;;;;;;4991357;28;20453;-66
2023/04/01 15:08:02;;;;;;;0.40;0.40;;;11.80;99.90;;;;;;4977439;28;20437;-64
2023/04/01 15:10:59;;;;;;;0.63;0.53;;;11.90;99.90;;;;;;4994933;28;20420;-63
2023/04/01 15:13:44;;;;;;;0.70;0.70;;;11.90;99.90;;;;;;4994419;28;20468;-64
2023/04/01 15:16:22;;;;;;;0.40;0.40;;;11.90;99.90;;;;;;4975400;28;20518;-64
2023/04/01 15:19:10;;;;;;;0.30;0.30;;;12.00;99.90;;;;;;4987858;28;20516;-65
2023/04/01 15:22:01;;;;;;;0.40;0.30;;;11.90;99.90;;;;;;4975641;28;20427;-66
2023/04/01 15:24:35;;;;;;;0.40;0.40;;;12.00;99.90;;;;;;4987892;28;20474;-70
2023/04/01 15:27:27;;;;;;;1.03;0.53;;;11.90;99.90;;;;;;4985355;28;20425;-66
2023/04/01 15:30:14;;;;;;;0.30;0.30;;;12.00;99.90;;;;;;4975181;28;20449;-66
2023/04/01 15:33:06;;;;;;;0.70;0.50;;;12.00;99.90;;;;;;4975460;28;20189;-66
2023/04/01 15:35:49;;;;;;;0.60;0.30;;;12.00;99.90;;;;;;4988176;28;20535;-63
2023/04/01 15:38:21;;;;;;;0.60;0.43;;;12.10;99.90;;;;;;4977651;28;20486;-62
2023/04/01 15:41:17;;;;;;;1.17;1.17;;;12.00;99.90;;;;;;4987540;28;20421;-65
2023/04/01 15:43:52;;;;;;;0.60;0.60;;;12.00;99.90;;;;;;4993867;28;20466;-69
2023/04/01 15:46:51;;;;;;;0.60;0.60;;;12.00;99.90;;;;;;4977324;28;20420;-66
2023/04/01 15:49:23;;;;;;;0.30;0.30;;;12.10;99.90;;;;;;4952964;28;20433;-69
2023/04/01 15:52:10;;;;;;;1.23;0.60;;;12.10;99.90;;;;;;4974545;28;20410;-66
2023/04/01 15:55:02;;;;;;;0.70;0.70;;;12.10;99.90;;;;;;4974686;28;20440;-65
2023/04/01 15:57:40;;;;;;;0.50;0.50;;;12.00;99.90;;;;;;4973665;28;20413;-69
2023/04/01 16:00:31;;;;;;;0.70;0.70;;;12.00;99.90;;;;;;4974880;28;20410;-67
2023/04/01 16:03:34;;;;;;;0.50;0.40;;;11.90;99.90;;;;;;4975006;28;20423;-67
2023/04/01 16:06:06;;;;;;;2.73;0.60;;;11.90;99.90;;;;;;4974710;28;20461;-66
2023/04/01 16:09:16;;;;;;;0.50;0.50;;;11.90;99.90;;;;;;4974854;28;20776;-69
2023/04/01 16:11:52;;;;;;;1.37;0.83;;;11.90;99.90;;;;;;4973511;28;20419;-70
2023/04/01 16:14:26;;;;;;;4.90;0.67;;;11.80;99.90;;;;;;4974349;28;20776;-68
2023/04/01 16:17:19;;;;;;;0.60;0.60;;;11.80;99.90;;;;;;4974615;28;20414;-66
2023/04/01 16:19:52;;;;;;;0.60;0.60;;;11.80;99.90;;;;;;4977057;28;20707;-66
2023/04/01 16:22:37;;;;;;;0.40;0.40;;;11.80;99.90;;;;;;4994309;28;20422;-67
2023/04/01 16:25:21;;;;;;;0.50;0.50;;;11.70;99.90;;;;;;4993829;28;20221;-69
2023/04/01 16:27:51;;;;;;;1.13;1.13;;;11.70;99.90;;;;;;4993712;28;20219;-69
2023/04/01 16:30:27;;;;;;;0.90;0.90;;;11.70;99.90;;;;;;4974456;28;20213;-67
2023/04/01 16:33:11;;;;;;;0.87;0.87;;;11.70;99.90;;;;;;4974621;28;20243;-67
2023/04/01 16:35:50;;;;;;;0.88;0.50;;;11.70;99.90;;;;;;4974695;28;20535;-68
2023/04/01 16:38:23;;;;;;;0.93;0.50;;;11.70;99.90;;;;;;4974804;28;20196;-67
2023/04/01 16:41:01;;;;;;;0.63;0.63;;;11.60;99.90;;;;;;4973948;28;20445;-68
2023/04/01 16:43:59;;;;;;;0.70;0.50;;;11.60;99.90;;;;;;4975686;28;20573;-66
2023/04/01 16:46:43;;;;;;;0.93;0.85;;;11.60;99.90;;;;;;4974025;28;20432;-65
2023/04/01 16:49:12;;;;;;;1.30;1.20;;;11.60;99.90;;;;;;4973793;28;20172;-67
2023/04/01 16:51:54;;;;;;;1.40;0.50;;;11.50;99.90;;;;;;4993884;28;20204;-68
2023/04/01 16:54:45;;;;;;;0.40;0.40;;;11.50;99.90;;;;;;4993276;28;20196;-69
2023/04/01 16:57:10;;;;;;;0.60;0.60;;;11.50;99.90;;;;;;4993489;28;20180;-60
2023/04/01 17:00:00;;;;;;;0.60;0.60;;;11.40;99.90;;;;;;4992913;28;20184;-59
2023/04/01 17:02:42;;;;;;;0.70;0.70;;;11.40;99.90;;;;;;4975113;28;20650;-60
2023/04/01 17:05:13;;;;;;;0.75;0.75;;;11.30;99.90;;;;;;4991966;28;20251;-60
2023/04/01 17:08:06;;;;;;;0.88;0.85;;;11.30;99.90;;;;;;4993749;28;20175;-61
2023/04/01 17:10:41;;;;;;;0.85;0.85;;;11.30;99.90;;;;;;4992819;28;20253;-60
2023/04/01 17:13:41;;;;;;;1.10;1.10;;;11.30;99.90;;;;;;4984826;28;20203;-60
2023/04/01 17:16:38;;;;;;;0.95;0.95;;;11.30;99.90;;;;;;4977957;28;20183;-59
2023/04/01 17:19:37;;;;;;;0.85;0.85;;;11.30;99.90;;;;;;4993420;28;20282;-58
2023/04/01 17:22:31;;;;;;;1.23;0.70;;;11.20;99.90;;;;;;4993683;28;20169;-60
2023/04/01 17:25:05;;;;;;;0.90;0.90;;;11.30;99.90;;;;;;4993041;28;20197;-60
2023/04/01 17:27:37;;;;;;;0.77;0.65;;;11.30;99.90;;;;;;4984761;28;20225;-59
2023/04/01 17:30:32;;;;;;;0.52;0.52;;;11.30;99.90;;;;;;4973950;28;20172;-59
2023/04/01 17:33:06;;;;;;;1.10;1.00;;;11.30;99.90;;;;;;4969676;28;20290;-60
2023/04/01 17:35:37;;;;;;;1.77;0.80;;;11.30;99.90;;;;;;4974366;28;20558;-59
2023/04/01 17:38:20;;;;;;;0.70;0.70;;;11.30;99.90;;;;;;4973960;28;20257;-60
2023/04/01 17:40:57;;;;;;;0.75;0.60;;;11.30;99.90;;;;;;4973929;28;20209;-59
2023/04/01 17:44:00;;;;;;;0.80;0.80;;;11.30;99.90;;;;;;4981890;28;20584;-58
2023/04/01 17:46:40;;;;;;;1.58;1.02;;;11.30;99.90;;;;;;4987576;28;20187;-61
2023/04/01 17:49:24;;;;;;;1.20;1.10;;;11.30;99.90;;;;;;4993312;28;20196;-60
2023/04/01 17:52:39;;;;;;;1.52;1.15;;;11.30;99.90;;;;;;4994023;28;20164;-60
2023/04/01 17:55:30;;;;;;;1.40;1.33;;;11.20;99.90;;;;;;4996716;28;20208;-59
2023/04/01 17:58:03;;;;;;;0.90;0.80;;;11.30;99.90;;;;;;4996117;28;20250;-61
2023/04/01 18:00:35;;;;;;;1.35;1.00;;;11.30;99.90;;;;;;4996927;28;20240;-63
2023/04/01 18:03:23;;;;;;;0.98;0.98;;;11.30;99.90;;;;;;4996888;28;20168;-61
2023/04/01 18:06:12;;;;;;;1.38;0.73;;;11.20;99.90;;;;;;4997813;28;20230;-64
2023/04/01 18:08:56;;;;;;;0.98;0.98;;;11.20;99.90;;;;;;4991106;28;20177;-63
2023/04/01 18:11:52;;;;;;;0.70;0.70;;;11.20;99.90;;;;;;4979729;28;20539;-61
2023/04/01 18:14:36;;;;;;;0.70;0.70;;;11.20;99.90;;;;;;4977883;28;20247;-60
2023/04/01 18:17:15;;;;;;;0.55;0.55;;;11.10;99.90;;;;;;4984919;28;20168;-60
2023/04/01 18:19:46;;;;;;;0.95;0.80;;;11.10;99.90;;;;;;4980600;28;20183;-62
2023/04/01 18:22:25;;;;;;;0.60;0.60;;;11.00;99.90;;;;;;4976848;28;20195;-61
2023/04/01 18:25:21;;;;;;;0.80;0.80;;;11.00;99.90;;;;;;4976645;28;20223;-62
2023/04/01 18:28:16;;;;;;;0.73;0.70;;;10.90;99.90;;;;;;4987171;28;20187;-65
2023/04/01 18:30:49;;;;;;;0.88;0.80;;;10.80;99.90;;;;;;4978440;28;20585;-65
2023/04/01 18:33:24;;;;;;;0.90;0.90;;;10.80;99.90;;;;;;4978230;28;20191;-64
2023/04/01 18:36:18;;;;;;;1.48;1.40;;;10.70;99.90;;;;;;4977914;28;20195;-64
2023/04/01 18:39:15;;;;;;;1.35;1.20;;;10.70;99.90;;;;;;4975649;28;20726;-65
2023/04/01 18:41:52;;;;;;;1.23;1.00;;;10.60;99.90;;;;;;4940871;28;20316;-63
2023/04/01 18:44:29;;;;;;;0.60;0.60;;;10.60;99.90;;;;;;4981580;28;20185;-64
2023/04/01 18:47:22;;;;;;;0.70;0.70;;;10.60;99.90;;;;;;4978876;28;20219;-64
2023/04/01 18:50:17;;;;;;;0.65;0.65;;;10.50;99.90;;;;;;4989728;28;20254;-66
2023/04/01 18:52:43;;;;;;;0.77;0.77;;;10.50;99.90;;;;;;4983960;28;20199;-64
2023/04/01 18:55:49;;;;;;;0.80;0.80;;;10.50;99.90;;;;;;4986085;28;20287;-67
2023/04/01 18:58:38;;;;;;;0.93;0.90;;;10.40;99.90;;;;;;4994782;28;20561;-64
2023/04/01 19:01:28;;;;;;;3.35;1.20;;;10.30;99.90;;;;;;4994257;28;20183;-63
2023/04/01 19:04:05;;;;;;;0.80;0.68;;;10.30;99.90;;;;;;4994372;28;20171;-64
2023/04/01 19:06:39;;;;;;;0.88;0.88;;;10.20;99.90;;;;;;4995391;28;20530;-65
2023/04/01 19:09:17;;;;;;;1.15;0.80;;;10.10;99.90;;;;;;4995342;28;20650;-65
2023/04/01 19:12:00;;;;;;;0.98;0.98;;;10.10;99.90;;;;;;4981500;28;20183;-65
2023/04/01 19:14:31;;;;;;;0.80;0.80;;;10.00;99.90;;;;;;4975697;28;20221;-62